sensor_id;sensor_type;location;lat;lon;timestamp;P1;durP1;ratioP1;P2;durP2;ratioP2
72761;SDS011;60886;55.034;73.150;2023-03-04T00:02:35;7.00;;;1.73;;
72761;SDS011;60886;55.034;73.150;2023-03-04T00:05:37;11.43;;;2.28;;
72761;SDS011;60886;55.034;73.150;2023-03-04T00:08:43;8.13;;;1.90;;
72761;SDS011;60886;55.034;73.150;2023-03-04T00:11:45;8.00;;;2.08;;
72761;SDS011;60886;55.034;73.150;2023-03-04T00:14:46;12.20;;;2.23;;
72761;SDS011;60886;55.034;73.150;2023-03-04T00:17:47;6.90;;;1.83;;
72761;SDS011;60886;55.034;73.150;2023-03-04T00:20:49;8.43;;;2.22;;
72761;SDS011;60886;55.034;73.150;2023-03-04T00:23:50;7.57;;;1.90;;
72761;SDS011;60886;55.034;73.150;2023-03-04T00:27:06;5.29;;;1.77;;
72761;SDS011;60886;55.034;73.150;2023-03-04T00:30:07;4.47;;;1.20;;
72761;SDS011;60886;55.034;73.150;2023-03-04T00:33:09;6.47;;;1.70;;
72761;SDS011;60886;55.034;73.150;2023-03-04T00:36:21;6.90;;;1.83;;
72761;SDS011;60886;55.034;73.150;2023-03-04T00:39:22;8.85;;;2.13;;
72761;SDS011;60886;55.034;73.150;2023-03-04T00:42:33;6.97;;;1.70;;
72761;SDS011;60886;55.034;73.150;2023-03-04T00:45:40;6.93;;;1.52;;
72761;SDS011;60886;55.034;73.150;2023-03-04T00:48:47;4.22;;;1.17;;
72761;SDS011;60886;55.034;73.150;2023-03-04T00:51:49;7.63;;;1.85;;
72761;SDS011;60886;55.034;73.150;2023-03-04T00:54:59;7.00;;;1.67;;
72761;SDS011;60886;55.034;73.150;2023-03-04T00:58:11;9.38;;;2.00;;
72761;SDS011;60886;55.034;73.150;2023-03-04T01:01:17;5.90;;;1.50;;
72761;SDS011;60886;55.034;73.150;2023-03-04T01:04:28;8.98;;;1.67;;
72761;SDS011;60886;55.034;73.150;2023-03-04T01:07:30;5.73;;;1.53;;
72761;SDS011;60886;55.034;73.150;2023-03-04T01:10:31;5.85;;;1.60;;
72761;SDS011;60886;55.034;73.150;2023-03-04T01:13:33;2.35;;;0.60;;
72761;SDS011;60886;55.034;73.150;2023-03-04T01:16:34;4.85;;;1.23;;
72761;SDS011;60886;55.034;73.150;2023-03-04T01:19:35;5.47;;;1.63;;
72761;SDS011;60886;55.034;73.150;2023-03-04T01:22:47;6.77;;;1.87;;
72761;SDS011;60886;55.034;73.150;2023-03-04T01:25:48;5.03;;;1.30;;
72761;SDS011;60886;55.034;73.150;2023-03-04T01:28:50;5.70;;;1.20;;
72761;SDS011;60886;55.034;73.150;2023-03-04T01:31:51;6.60;;;1.70;;
72761;SDS011;60886;55.034;73.150;2023-03-04T01:34:54;6.03;;;1.60;;
72761;SDS011;60886;55.034;73.150;2023-03-04T01:37:55;6.25;;;1.70;;
72761;SDS011;60886;55.034;73.150;2023-03-04T01:40:57;6.97;;;1.77;;
72761;SDS011;60886;55.034;73.150;2023-03-04T01:43:59;6.13;;;1.80;;
72761;SDS011;60886;55.034;73.150;2023-03-04T01:47:07;6.95;;;1.60;;
72761;SDS011;60886;55.034;73.150;2023-03-04T01:50:10;7.40;;;2.08;;
72761;SDS011;60886;55.034;73.150;2023-03-04T01:53:34;5.00;;;1.13;;
72761;SDS011;60886;55.034;73.150;2023-03-04T01:56:38;6.40;;;1.98;;
72761;SDS011;60886;55.034;73.150;2023-03-04T01:59:40;8.80;;;1.88;;
72761;SDS011;60886;55.034;73.150;2023-03-04T02:02:41;4.80;;;1.60;;
72761;SDS011;60886;55.034;73.150;2023-03-04T02:05:44;5.80;;;1.73;;
72761;SDS011;60886;55.034;73.150;2023-03-04T02:08:57;6.53;;;1.60;;
72761;SDS011;60886;55.034;73.150;2023-03-04T02:12:06;8.28;;;2.30;;
72761;SDS011;60886;55.034;73.150;2023-03-04T02:15:09;4.10;;;1.35;;
72761;SDS011;60886;55.034;73.150;2023-03-04T02:18:17;7.20;;;1.70;;
72761;SDS011;60886;55.034;73.150;2023-03-04T02:21:25;6.93;;;2.00;;
72761;SDS011;60886;55.034;73.150;2023-03-04T02:24:34;11.25;;;2.40;;
72761;SDS011;60886;55.034;73.150;2023-03-04T02:27:55;10.37;;;2.13;;
72761;SDS011;60886;55.034;73.150;2023-03-04T02:31:01;6.88;;;1.67;;
72761;SDS011;60886;55.034;73.150;2023-03-04T02:34:21;8.80;;;2.15;;
72761;SDS011;60886;55.034;73.150;2023-03-04T02:37:27;6.43;;;1.57;;
72761;SDS011;60886;55.034;73.150;2023-03-04T02:40:30;5.22;;;1.75;;
72761;SDS011;60886;55.034;73.150;2023-03-04T02:43:34;5.17;;;1.90;;
72761;SDS011;60886;55.034;73.150;2023-03-04T02:46:45;4.93;;;1.05;;
72761;SDS011;60886;55.034;73.150;2023-03-04T02:49:47;6.40;;;1.63;;
72761;SDS011;60886;55.034;73.150;2023-03-04T02:52:49;7.73;;;2.00;;
72761;SDS011;60886;55.034;73.150;2023-03-04T02:56:02;6.85;;;2.03;;
72761;SDS011;60886;55.034;73.150;2023-03-04T02:59:08;8.15;;;2.50;;
72761;SDS011;60886;55.034;73.150;2023-03-04T03:02:18;4.68;;;1.13;;
72761;SDS011;60886;55.034;73.150;2023-03-04T03:05:20;7.73;;;2.40;;
72761;SDS011;60886;55.034;73.150;2023-03-04T03:08:23;4.75;;;1.38;;
72761;SDS011;60886;55.034;73.150;2023-03-04T03:11:33;8.03;;;2.27;;
72761;SDS011;60886;55.034;73.150;2023-03-04T03:14:45;10.95;;;3.10;;
72761;SDS011;60886;55.034;73.150;2023-03-04T03:17:48;7.30;;;2.13;;
72761;SDS011;60886;55.034;73.150;2023-03-04T03:20:50;8.03;;;2.70;;
72761;SDS011;60886;55.034;73.150;2023-03-04T03:24:01;8.30;;;2.20;;
72761;SDS011;60886;55.034;73.150;2023-03-04T03:27:05;11.38;;;3.00;;
72761;SDS011;60886;55.034;73.150;2023-03-04T03:30:09;11.85;;;3.97;;
72761;SDS011;60886;55.034;73.150;2023-03-04T03:33:17;12.70;;;3.87;;
72761;SDS011;60886;55.034;73.150;2023-03-04T03:36:18;8.30;;;1.85;;
72761;SDS011;60886;55.034;73.150;2023-03-04T03:39:20;6.55;;;1.92;;
72761;SDS011;60886;55.034;73.150;2023-03-04T03:42:27;8.00;;;1.80;;
72761;SDS011;60886;55.034;73.150;2023-03-04T03:45:29;6.97;;;1.80;;
72761;SDS011;60886;55.034;73.150;2023-03-04T03:48:30;6.63;;;1.40;;
72761;SDS011;60886;55.034;73.150;2023-03-04T03:51:31;6.55;;;1.33;;
72761;SDS011;60886;55.034;73.150;2023-03-04T03:54:33;6.13;;;2.45;;
72761;SDS011;60886;55.034;73.150;2023-03-04T03:57:34;5.75;;;2.33;;
72761;SDS011;60886;55.034;73.150;2023-03-04T04:00:36;9.65;;;2.63;;
72761;SDS011;60886;55.034;73.150;2023-03-04T04:03:37;6.97;;;2.03;;
72761;SDS011;60886;55.034;73.150;2023-03-04T04:06:38;11.45;;;2.72;;
72761;SDS011;60886;55.034;73.150;2023-03-04T04:09:40;10.30;;;2.67;;
72761;SDS011;60886;55.034;73.150;2023-03-04T04:12:41;8.30;;;2.57;;
72761;SDS011;60886;55.034;73.150;2023-03-04T04:15:42;8.80;;;2.80;;
72761;SDS011;60886;55.034;73.150;2023-03-04T04:18:49;6.33;;;2.07;;
72761;SDS011;60886;55.034;73.150;2023-03-04T04:22:15;8.88;;;2.74;;
72761;SDS011;60886;55.034;73.150;2023-03-04T04:25:23;10.75;;;2.67;;
72761;SDS011;60886;55.034;73.150;2023-03-04T04:28:29;9.17;;;2.83;;
72761;SDS011;60886;55.034;73.150;2023-03-04T04:31:30;11.35;;;2.72;;
72761;SDS011;60886;55.034;73.150;2023-03-04T04:34:32;7.30;;;1.73;;
72761;SDS011;60886;55.034;73.150;2023-03-04T04:37:33;8.10;;;2.38;;
72761;SDS011;60886;55.034;73.150;2023-03-04T04:40:35;9.88;;;3.10;;
72761;SDS011;60886;55.034;73.150;2023-03-04T04:43:37;11.93;;;3.30;;
72761;SDS011;60886;55.034;73.150;2023-03-04T04:46:38;7.77;;;2.50;;
72761;SDS011;60886;55.034;73.150;2023-03-04T04:49:40;9.35;;;2.63;;
72761;SDS011;60886;55.034;73.150;2023-03-04T04:52:42;11.17;;;2.80;;
72761;SDS011;60886;55.034;73.150;2023-03-04T04:55:53;9.68;;;3.38;;
72761;SDS011;60886;55.034;73.150;2023-03-04T04:58:55;8.83;;;2.93;;
72761;SDS011;60886;55.034;73.150;2023-03-04T05:02:05;9.36;;;3.16;;
72761;SDS011;60886;55.034;73.150;2023-03-04T05:05:17;8.93;;;2.60;;
72761;SDS011;60886;55.034;73.150;2023-03-04T05:08:23;13.43;;;2.90;;
72761;SDS011;60886;55.034;73.150;2023-03-04T05:11:24;8.82;;;2.90;;
72761;SDS011;60886;55.034;73.150;2023-03-04T05:14:39;9.75;;;3.15;;
72761;SDS011;60886;55.034;73.150;2023-03-04T05:17:51;9.03;;;2.27;;
72761;SDS011;60886;55.034;73.150;2023-03-04T05:20:56;7.10;;;1.80;;
72761;SDS011;60886;55.034;73.150;2023-03-04T05:24:03;9.37;;;2.43;;
72761;SDS011;60886;55.034;73.150;2023-03-04T05:27:05;7.90;;;2.95;;
72761;SDS011;60886;55.034;73.150;2023-03-04T05:30:07;11.55;;;3.25;;
72761;SDS011;60886;55.034;73.150;2023-03-04T05:33:09;8.63;;;2.80;;
72761;SDS011;60886;55.034;73.150;2023-03-04T05:36:12;6.80;;;2.00;;
72761;SDS011;60886;55.034;73.150;2023-03-04T05:39:13;10.35;;;2.70;;
72761;SDS011;60886;55.034;73.150;2023-03-04T05:42:24;9.43;;;3.17;;
72761;SDS011;60886;55.034;73.150;2023-03-04T05:45:26;9.23;;;2.55;;
72761;SDS011;60886;55.034;73.150;2023-03-04T05:48:38;8.17;;;1.90;;
72761;SDS011;60886;55.034;73.150;2023-03-04T05:51:39;9.75;;;2.78;;
72761;SDS011;60886;55.034;73.150;2023-03-04T05:54:40;9.93;;;2.88;;
72761;SDS011;60886;55.034;73.150;2023-03-04T05:57:42;5.93;;;1.93;;
72761;SDS011;60886;55.034;73.150;2023-03-04T06:00:48;11.32;;;2.95;;
72761;SDS011;60886;55.034;73.150;2023-03-04T06:03:59;8.23;;;2.57;;
72761;SDS011;60886;55.034;73.150;2023-03-04T06:07:05;8.32;;;2.80;;
72761;SDS011;60886;55.034;73.150;2023-03-04T06:10:07;8.50;;;2.60;;
72761;SDS011;60886;55.034;73.150;2023-03-04T06:13:10;7.80;;;3.07;;
72761;SDS011;60886;55.034;73.150;2023-03-04T06:16:11;10.15;;;2.85;;
72761;SDS011;60886;55.034;73.150;2023-03-04T06:19:13;10.83;;;4.23;;
72761;SDS011;60886;55.034;73.150;2023-03-04T06:22:14;10.97;;;3.50;;
72761;SDS011;60886;55.034;73.150;2023-03-04T06:25:16;8.63;;;2.63;;
72761;SDS011;60886;55.034;73.150;2023-03-04T06:28:18;9.67;;;2.23;;
72761;SDS011;60886;55.034;73.150;2023-03-04T06:31:19;9.03;;;2.87;;
72761;SDS011;60886;55.034;73.150;2023-03-04T06:34:20;9.23;;;3.22;;
72761;SDS011;60886;55.034;73.150;2023-03-04T06:37:31;9.13;;;3.07;;
72761;SDS011;60886;55.034;73.150;2023-03-04T06:40:42;8.10;;;2.90;;
72761;SDS011;60886;55.034;73.150;2023-03-04T06:43:45;7.20;;;1.92;;
72761;SDS011;60886;55.034;73.150;2023-03-04T06:46:46;9.93;;;2.72;;
72761;SDS011;60886;55.034;73.150;2023-03-04T06:49:48;7.47;;;2.63;;
72761;SDS011;60886;55.034;73.150;2023-03-04T06:52:57;7.13;;;2.10;;
72761;SDS011;60886;55.034;73.150;2023-03-04T06:55:58;10.00;;;2.80;;
72761;SDS011;60886;55.034;73.150;2023-03-04T06:58:59;8.60;;;2.80;;
72761;SDS011;60886;55.034;73.150;2023-03-04T07:02:05;8.98;;;2.50;;
72761;SDS011;60886;55.034;73.150;2023-03-04T07:05:10;5.70;;;1.90;;
72761;SDS011;60886;55.034;73.150;2023-03-04T07:08:11;8.02;;;2.60;;
72761;SDS011;60886;55.034;73.150;2023-03-04T07:11:13;9.13;;;2.50;;
72761;SDS011;60886;55.034;73.150;2023-03-04T07:14:15;7.13;;;2.33;;
72761;SDS011;60886;55.034;73.150;2023-03-04T07:17:16;8.40;;;2.35;;
72761;SDS011;60886;55.034;73.150;2023-03-04T07:20:18;7.22;;;1.88;;
72761;SDS011;60886;55.034;73.150;2023-03-04T07:23:29;9.25;;;2.95;;
72761;SDS011;60886;55.034;73.150;2023-03-04T07:26:41;9.10;;;3.15;;
72761;SDS011;60886;55.034;73.150;2023-03-04T07:29:42;8.82;;;2.55;;
72761;SDS011;60886;55.034;73.150;2023-03-04T07:32:45;8.20;;;2.90;;
72761;SDS011;60886;55.034;73.150;2023-03-04T07:35:46;10.40;;;3.15;;
72761;SDS011;60886;55.034;73.150;2023-03-04T07:38:48;7.67;;;2.03;;
72761;SDS011;60886;55.034;73.150;2023-03-04T07:41:51;8.02;;;2.40;;
72761;SDS011;60886;55.034;73.150;2023-03-04T07:44:52;9.65;;;2.70;;
72761;SDS011;60886;55.034;73.150;2023-03-04T07:47:56;6.90;;;2.20;;
72761;SDS011;60886;55.034;73.150;2023-03-04T07:51:09;8.77;;;2.80;;
72761;SDS011;60886;55.034;73.150;2023-03-04T07:54:15;7.53;;;2.20;;
72761;SDS011;60886;55.034;73.150;2023-03-04T07:57:26;7.50;;;2.60;;
72761;SDS011;60886;55.034;73.150;2023-03-04T08:00:28;7.93;;;2.20;;
72761;SDS011;60886;55.034;73.150;2023-03-04T08:03:40;7.75;;;2.30;;
72761;SDS011;60886;55.034;73.150;2023-03-04T08:06:42;9.13;;;2.53;;
72761;SDS011;60886;55.034;73.150;2023-03-04T08:09:54;11.02;;;3.53;;
72761;SDS011;60886;55.034;73.150;2023-03-04T08:13:06;8.73;;;3.23;;
72761;SDS011;60886;55.034;73.150;2023-03-04T08:16:09;10.37;;;4.17;;
72761;SDS011;60886;55.034;73.150;2023-03-04T08:19:28;10.18;;;2.95;;
72761;SDS011;60886;55.034;73.150;2023-03-04T08:22:39;9.73;;;3.20;;
72761;SDS011;60886;55.034;73.150;2023-03-04T08:25:50;11.88;;;4.45;;
72761;SDS011;60886;55.034;73.150;2023-03-04T08:28:52;8.20;;;2.87;;
72761;SDS011;60886;55.034;73.150;2023-03-04T08:31:54;8.05;;;2.70;;
72761;SDS011;60886;55.034;73.150;2023-03-04T08:34:55;8.70;;;2.72;;
72761;SDS011;60886;55.034;73.150;2023-03-04T08:37:57;7.53;;;2.63;;
72761;SDS011;60886;55.034;73.150;2023-03-04T08:40:58;9.00;;;3.25;;
72761;SDS011;60886;55.034;73.150;2023-03-04T08:44:00;8.07;;;2.93;;
72761;SDS011;60886;55.034;73.150;2023-03-04T08:47:08;7.62;;;2.32;;
72761;SDS011;60886;55.034;73.150;2023-03-04T08:50:10;8.77;;;3.20;;
72761;SDS011;60886;55.034;73.150;2023-03-04T08:53:13;9.10;;;2.00;;
72761;SDS011;60886;55.034;73.150;2023-03-04T08:56:16;8.00;;;2.70;;
72761;SDS011;60886;55.034;73.150;2023-03-04T08:59:18;9.70;;;2.90;;
72761;SDS011;60886;55.034;73.150;2023-03-04T09:02:19;16.40;;;5.53;;
72761;SDS011;60886;55.034;73.150;2023-03-04T09:05:27;9.50;;;3.30;;
72761;SDS011;60886;55.034;73.150;2023-03-04T09:08:41;7.70;;;2.70;;
72761;SDS011;60886;55.034;73.150;2023-03-04T09:11:42;10.40;;;3.30;;
72761;SDS011;60886;55.034;73.150;2023-03-04T09:14:44;7.88;;;2.70;;
72761;SDS011;60886;55.034;73.150;2023-03-04T09:17:45;9.00;;;3.00;;
72761;SDS011;60886;55.034;73.150;2023-03-04T09:20:47;8.85;;;2.55;;
72761;SDS011;60886;55.034;73.150;2023-03-04T09:23:49;7.07;;;2.30;;
72761;SDS011;60886;55.034;73.150;2023-03-04T09:26:55;6.57;;;2.17;;
72761;SDS011;60886;55.034;73.150;2023-03-04T09:29:56;9.38;;;2.88;;
72761;SDS011;60886;55.034;73.150;2023-03-04T09:32:58;9.00;;;3.70;;
72761;SDS011;60886;55.034;73.150;2023-03-04T09:35:59;10.18;;;3.35;;
72761;SDS011;60886;55.034;73.150;2023-03-04T09:39:01;10.60;;;2.83;;
72761;SDS011;60886;55.034;73.150;2023-03-04T09:42:06;10.38;;;3.20;;
72761;SDS011;60886;55.034;73.150;2023-03-04T09:45:11;11.38;;;3.78;;
72761;SDS011;60886;55.034;73.150;2023-03-04T09:48:19;9.85;;;3.78;;
72761;SDS011;60886;55.034;73.150;2023-03-04T09:54:40;7.60;;;2.95;;
72761;SDS011;60886;55.034;73.150;2023-03-04T10:04:51;8.35;;;2.78;;
72761;SDS011;60886;55.034;73.150;2023-03-04T10:08:14;10.43;;;3.63;;
72761;SDS011;60886;55.034;73.150;2023-03-04T10:12:06;11.21;;;3.24;;
72761;SDS011;60886;55.034;73.150;2023-03-04T10:25:52;9.88;;;3.70;;
72761;SDS011;60886;55.034;73.150;2023-03-04T10:28:54;11.13;;;4.37;;
72761;SDS011;60886;55.034;73.150;2023-03-04T10:32:07;8.82;;;3.38;;
72761;SDS011;60886;55.034;73.150;2023-03-04T10:35:17;7.88;;;2.90;;
72761;SDS011;60886;55.034;73.150;2023-03-04T10:38:22;9.17;;;2.80;;
72761;SDS011;60886;55.034;73.150;2023-03-04T10:41:29;10.75;;;3.90;;
72761;SDS011;60886;55.034;73.150;2023-03-04T10:44:32;16.38;;;5.95;;
72761;SDS011;60886;55.034;73.150;2023-03-04T10:47:34;15.17;;;5.70;;
72761;SDS011;60886;55.034;73.150;2023-03-04T10:50:36;11.40;;;4.30;;
72761;SDS011;60886;55.034;73.150;2023-03-04T10:53:48;8.47;;;2.87;;
72761;SDS011;60886;55.034;73.150;2023-03-04T10:59:59;10.73;;;3.58;;
72761;SDS011;60886;55.034;73.150;2023-03-04T11:03:29;10.20;;;3.42;;
72761;SDS011;60886;55.034;73.150;2023-03-04T11:06:41;11.83;;;4.00;;
72761;SDS011;60886;55.034;73.150;2023-03-04T11:09:48;14.75;;;4.75;;
72761;SDS011;60886;55.034;73.150;2023-03-04T11:13:07;13.20;;;5.10;;
72761;SDS011;60886;55.034;73.150;2023-03-04T11:16:29;10.25;;;3.58;;
72761;SDS011;60886;55.034;73.150;2023-03-04T11:19:41;15.03;;;3.60;;
72761;SDS011;60886;55.034;73.150;2023-03-04T11:22:46;9.80;;;3.30;;
72761;SDS011;60886;55.034;73.150;2023-03-04T11:25:50;10.32;;;4.00;;
72761;SDS011;60886;55.034;73.150;2023-03-04T11:32:37;11.13;;;4.57;;
72761;SDS011;60886;55.034;73.150;2023-03-04T11:36:03;9.57;;;3.50;;
72761;SDS011;60886;55.034;73.150;2023-03-04T11:39:38;10.65;;;3.83;;
72761;SDS011;60886;55.034;73.150;2023-03-04T11:42:55;8.65;;;3.40;;
72761;SDS011;60886;55.034;73.150;2023-03-04T12:03:09;11.07;;;4.90;;
72761;SDS011;60886;55.034;73.150;2023-03-04T12:10:25;17.30;;;6.60;;
72761;SDS011;60886;55.034;73.150;2023-03-04T12:13:50;14.90;;;5.67;;
72761;SDS011;60886;55.034;73.150;2023-03-04T12:30:15;10.05;;;3.90;;
72761;SDS011;60886;55.034;73.150;2023-03-04T12:37:09;9.60;;;3.63;;
72761;SDS011;60886;55.034;73.150;2023-03-04T12:40:46;11.25;;;5.28;;
72761;SDS011;60886;55.034;73.150;2023-03-04T12:44:10;12.57;;;5.63;;
72761;SDS011;60886;55.034;73.150;2023-03-04T12:47:28;11.45;;;4.22;;
72761;SDS011;60886;55.034;73.150;2023-03-04T12:51:01;12.07;;;4.80;;
72761;SDS011;60886;55.034;73.150;2023-03-04T12:54:39;16.50;;;6.23;;
72761;SDS011;60886;55.034;73.150;2023-03-04T12:57:53;13.48;;;4.88;;
72761;SDS011;60886;55.034;73.150;2023-03-04T13:08:14;17.25;;;6.38;;
72761;SDS011;60886;55.034;73.150;2023-03-04T13:21:32;14.02;;;5.68;;
72761;SDS011;60886;55.034;73.150;2023-03-04T13:24:57;12.68;;;4.90;;
72761;SDS011;60886;55.034;73.150;2023-03-04T13:37:55;17.07;;;6.57;;
72761;SDS011;60886;55.034;73.150;2023-03-04T13:44:32;11.43;;;4.27;;
72761;SDS011;60886;55.034;73.150;2023-03-04T13:47:43;11.27;;;4.63;;
72761;SDS011;60886;55.034;73.150;2023-03-04T13:50:51;10.05;;;3.80;;
72761;SDS011;60886;55.034;73.150;2023-03-04T13:57:20;9.57;;;3.72;;
72761;SDS011;60886;55.034;73.150;2023-03-04T14:00:22;9.43;;;3.20;;
72761;SDS011;60886;55.034;73.150;2023-03-04T14:03:28;9.90;;;3.30;;
72761;SDS011;60886;55.034;73.150;2023-03-04T14:06:41;13.23;;;5.20;;
72761;SDS011;60886;55.034;73.150;2023-03-04T14:09:54;9.53;;;3.33;;
72761;SDS011;60886;55.034;73.150;2023-03-04T14:12:56;8.73;;;3.00;;
72761;SDS011;60886;55.034;73.150;2023-03-04T14:16:00;8.75;;;3.33;;
72761;SDS011;60886;55.034;73.150;2023-03-04T14:19:03;8.65;;;4.07;;
72761;SDS011;60886;55.034;73.150;2023-03-04T14:22:24;8.20;;;3.13;;
72761;SDS011;60886;55.034;73.150;2023-03-04T14:25:32;8.93;;;3.25;;
72761;SDS011;60886;55.034;73.150;2023-03-04T14:29:17;9.60;;;3.00;;
72761;SDS011;60886;55.034;73.150;2023-03-04T14:32:05;8.88;;;3.58;;
72761;SDS011;60886;55.034;73.150;2023-03-04T14:35:17;9.35;;;3.80;;
72761;SDS011;60886;55.034;73.150;2023-03-04T14:38:25;10.02;;;3.35;;
72761;SDS011;60886;55.034;73.150;2023-03-04T14:41:38;10.05;;;4.07;;
72761;SDS011;60886;55.034;73.150;2023-03-04T14:44:46;11.63;;;4.30;;
72761;SDS011;60886;55.034;73.150;2023-03-04T14:47:50;8.90;;;3.57;;
72761;SDS011;60886;55.034;73.150;2023-03-04T14:51:02;9.40;;;3.80;;
72761;SDS011;60886;55.034;73.150;2023-03-04T14:54:04;11.20;;;4.00;;
72761;SDS011;60886;55.034;73.150;2023-03-04T14:57:25;11.05;;;4.30;;
72761;SDS011;60886;55.034;73.150;2023-03-04T15:00:36;12.73;;;4.60;;
72761;SDS011;60886;55.034;73.150;2023-03-04T15:03:41;11.17;;;3.53;;
72761;SDS011;60886;55.034;73.150;2023-03-04T15:06:51;10.32;;;3.95;;
72761;SDS011;60886;55.034;73.150;2023-03-04T15:09:53;10.10;;;3.77;;
72761;SDS011;60886;55.034;73.150;2023-03-04T15:13:01;9.77;;;3.63;;
72761;SDS011;60886;55.034;73.150;2023-03-04T15:16:17;7.80;;;2.90;;
72761;SDS011;60886;55.034;73.150;2023-03-04T15:19:24;9.10;;;3.27;;
72761;SDS011;60886;55.034;73.150;2023-03-04T15:25:51;7.22;;;3.08;;
72761;SDS011;60886;55.034;73.150;2023-03-04T15:28:54;9.00;;;3.90;;
72761;SDS011;60886;55.034;73.150;2023-03-04T15:32:05;8.77;;;3.66;;
72761;SDS011;60886;55.034;73.150;2023-03-04T15:35:10;9.52;;;4.03;;
72761;SDS011;60886;55.034;73.150;2023-03-04T15:38:13;10.43;;;4.05;;
72761;SDS011;60886;55.034;73.150;2023-03-04T15:41:21;9.63;;;3.75;;
72761;SDS011;60886;55.034;73.150;2023-03-04T15:44:29;8.83;;;3.73;;
72761;SDS011;60886;55.034;73.150;2023-03-04T15:47:31;10.80;;;4.20;;
72761;SDS011;60886;55.034;73.150;2023-03-04T15:50:38;8.98;;;3.42;;
72761;SDS011;60886;55.034;73.150;2023-03-04T15:53:45;9.67;;;4.03;;
72761;SDS011;60886;55.034;73.150;2023-03-04T15:56:52;9.25;;;3.88;;
72761;SDS011;60886;55.034;73.150;2023-03-04T15:59:54;10.57;;;4.27;;
72761;SDS011;60886;55.034;73.150;2023-03-04T16:02:55;10.55;;;4.50;;
72761;SDS011;60886;55.034;73.150;2023-03-04T16:06:08;10.70;;;4.20;;
72761;SDS011;60886;55.034;73.150;2023-03-04T16:09:16;10.13;;;3.80;;
72761;SDS011;60886;55.034;73.150;2023-03-04T16:12:20;11.80;;;4.25;;
72761;SDS011;60886;55.034;73.150;2023-03-04T16:15:23;9.53;;;3.33;;
72761;SDS011;60886;55.034;73.150;2023-03-04T16:18:26;10.30;;;4.17;;
72761;SDS011;60886;55.034;73.150;2023-03-04T16:21:27;10.65;;;4.18;;
72761;SDS011;60886;55.034;73.150;2023-03-04T16:24:36;9.40;;;4.00;;
72761;SDS011;60886;55.034;73.150;2023-03-04T16:27:37;9.20;;;3.73;;
72761;SDS011;60886;55.034;73.150;2023-03-04T16:30:39;8.63;;;3.57;;
72761;SDS011;60886;55.034;73.150;2023-03-04T16:33:51;9.23;;;3.53;;
72761;SDS011;60886;55.034;73.150;2023-03-04T16:36:53;9.53;;;3.87;;
72761;SDS011;60886;55.034;73.150;2023-03-04T16:40:04;8.70;;;4.00;;
72761;SDS011;60886;55.034;73.150;2023-03-04T16:43:14;12.13;;;4.25;;
72761;SDS011;60886;55.034;73.150;2023-03-04T16:46:15;10.17;;;4.37;;
72761;SDS011;60886;55.034;73.150;2023-03-04T16:49:27;13.87;;;4.83;;
72761;SDS011;60886;55.034;73.150;2023-03-04T16:52:31;15.32;;;4.68;;
72761;SDS011;60886;55.034;73.150;2023-03-04T16:55:43;11.35;;;4.40;;
72761;SDS011;60886;55.034;73.150;2023-03-04T16:58:51;11.40;;;4.17;;
72761;SDS011;60886;55.034;73.150;2023-03-04T17:02:23;10.69;;;3.84;;
72761;SDS011;60886;55.034;73.150;2023-03-04T17:05:29;13.63;;;4.97;;
72761;SDS011;60886;55.034;73.150;2023-03-04T17:08:37;12.55;;;5.00;;
72761;SDS011;60886;55.034;73.150;2023-03-04T17:11:38;13.65;;;5.03;;
72761;SDS011;60886;55.034;73.150;2023-03-04T17:14:40;13.70;;;4.57;;
72761;SDS011;60886;55.034;73.150;2023-03-04T17:17:42;10.93;;;4.30;;
72761;SDS011;60886;55.034;73.150;2023-03-04T17:21:02;9.55;;;4.10;;
72761;SDS011;60886;55.034;73.150;2023-03-04T17:24:09;10.48;;;4.30;;
72761;SDS011;60886;55.034;73.150;2023-03-04T17:27:11;10.53;;;4.33;;
72761;SDS011;60886;55.034;73.150;2023-03-04T17:30:12;10.48;;;3.83;;
72761;SDS011;60886;55.034;73.150;2023-03-04T17:33:14;9.20;;;3.90;;
72761;SDS011;60886;55.034;73.150;2023-03-04T17:36:16;11.00;;;4.40;;
72761;SDS011;60886;55.034;73.150;2023-03-04T17:39:19;9.73;;;4.10;;
72761;SDS011;60886;55.034;73.150;2023-03-04T17:42:31;9.73;;;3.80;;
72761;SDS011;60886;55.034;73.150;2023-03-04T17:45:32;9.33;;;4.30;;
72761;SDS011;60886;55.034;73.150;2023-03-04T17:48:34;10.15;;;4.15;;
72761;SDS011;60886;55.034;73.150;2023-03-04T17:51:36;9.05;;;3.30;;
72761;SDS011;60886;55.034;73.150;2023-03-04T17:54:39;10.57;;;3.83;;
72761;SDS011;60886;55.034;73.150;2023-03-04T17:57:40;8.48;;;3.58;;
72761;SDS011;60886;55.034;73.150;2023-03-04T18:00:47;10.32;;;3.78;;
72761;SDS011;60886;55.034;73.150;2023-03-04T18:03:56;8.77;;;3.57;;
72761;SDS011;60886;55.034;73.150;2023-03-04T18:07:05;10.27;;;3.65;;
72761;SDS011;60886;55.034;73.150;2023-03-04T18:10:06;7.70;;;3.30;;
72761;SDS011;60886;55.034;73.150;2023-03-04T18:13:08;8.40;;;3.80;;
72761;SDS011;60886;55.034;73.150;2023-03-04T18:16:10;8.43;;;3.53;;
72761;SDS011;60886;55.034;73.150;2023-03-04T18:19:25;8.93;;;3.60;;
72761;SDS011;60886;55.034;73.150;2023-03-04T18:22:31;9.63;;;4.20;;
72761;SDS011;60886;55.034;73.150;2023-03-04T18:25:43;10.10;;;4.05;;
72761;SDS011;60886;55.034;73.150;2023-03-04T18:28:44;10.83;;;3.97;;
72761;SDS011;60886;55.034;73.150;2023-03-04T18:31:45;8.82;;;3.25;;
72761;SDS011;60886;55.034;73.150;2023-03-04T18:34:57;11.00;;;3.57;;
72761;SDS011;60886;55.034;73.150;2023-03-04T18:38:03;10.75;;;3.90;;
72761;SDS011;60886;55.034;73.150;2023-03-04T18:41:14;8.90;;;3.60;;
72761;SDS011;60886;55.034;73.150;2023-03-04T18:44:20;9.20;;;3.53;;
72761;SDS011;60886;55.034;73.150;2023-03-04T18:47:26;7.67;;;3.23;;
72761;SDS011;60886;55.034;73.150;2023-03-04T18:50:33;9.10;;;3.75;;
72761;SDS011;60886;55.034;73.150;2023-03-04T18:53:34;9.17;;;3.60;;
72761;SDS011;60886;55.034;73.150;2023-03-04T18:56:44;7.75;;;3.20;;
72761;SDS011;60886;55.034;73.150;2023-03-04T18:59:55;7.40;;;3.30;;
72761;SDS011;60886;55.034;73.150;2023-03-04T19:03:06;8.90;;;3.38;;
72761;SDS011;60886;55.034;73.150;2023-03-04T19:06:12;8.57;;;3.30;;
72761;SDS011;60886;55.034;73.150;2023-03-04T19:09:13;9.68;;;3.95;;
72761;SDS011;60886;55.034;73.150;2023-03-04T19:12:25;9.03;;;4.00;;
72761;SDS011;60886;55.034;73.150;2023-03-04T19:15:31;9.00;;;3.80;;
72761;SDS011;60886;55.034;73.150;2023-03-04T19:18:33;8.03;;;3.23;;
72761;SDS011;60886;55.034;73.150;2023-03-04T19:21:35;8.60;;;3.42;;
72761;SDS011;60886;55.034;73.150;2023-03-04T19:24:42;10.17;;;3.77;;
72761;SDS011;60886;55.034;73.150;2023-03-04T19:27:54;9.93;;;3.97;;
72761;SDS011;60886;55.034;73.150;2023-03-04T19:30:56;9.40;;;3.90;;
72761;SDS011;60886;55.034;73.150;2023-03-04T19:34:08;9.67;;;3.80;;
72761;SDS011;60886;55.034;73.150;2023-03-04T19:37:10;8.84;;;3.96;;
72761;SDS011;60886;55.034;73.150;2023-03-04T19:40:17;8.60;;;3.97;;
72761;SDS011;60886;55.034;73.150;2023-03-04T19:43:18;9.18;;;4.15;;
72761;SDS011;60886;55.034;73.150;2023-03-04T19:46:27;9.23;;;4.27;;
72761;SDS011;60886;55.034;73.150;2023-03-04T19:49:29;10.60;;;4.40;;
72761;SDS011;60886;55.034;73.150;2023-03-04T19:52:41;10.75;;;4.38;;
72761;SDS011;60886;55.034;73.150;2023-03-04T19:55:46;8.30;;;3.53;;
72761;SDS011;60886;55.034;73.150;2023-03-04T19:58:52;9.05;;;3.67;;
72761;SDS011;60886;55.034;73.150;2023-03-04T20:02:05;10.48;;;4.04;;
72761;SDS011;60886;55.034;73.150;2023-03-04T20:05:06;10.35;;;3.85;;
72761;SDS011;60886;55.034;73.150;2023-03-04T20:08:08;9.67;;;4.23;;